createdAt,value
2023-03-10T00:00:59.554Z,0.00
2023-03-10T00:01:59.479Z,4.00
2023-03-10T00:02:59.428Z,4.00
2023-03-10T00:03:59.343Z,4.00
2023-03-10T00:05:20.338Z,4.00
2023-03-10T00:05:59.199Z,4.00
2023-03-10T00:06:59.129Z,4.00
2023-03-10T00:07:59.096Z,4.00
2023-03-10T00:08:58.995Z,4.00
2023-03-10T00:09:58.919Z,4.00
2023-03-10T00:11:19.830Z,4.00
2023-03-10T00:11:58.776Z,4.00
2023-03-10T00:12:58.720Z,4.00
2023-03-10T00:13:58.637Z,4.00
2023-03-10T00:14:58.559Z,4.00
2023-03-10T00:15:58.509Z,4.00
2023-03-10T00:17:19.403Z,4.00
2023-03-10T00:17:58.347Z,4.00
2023-03-10T00:18:58.287Z,0.00
2023-03-10T00:19:58.210Z,0.00
2023-03-10T00:20:58.144Z,0.00
2023-03-10T00:21:58.067Z,0.00
2023-03-10T00:23:18.976Z,0.00
2023-03-10T00:23:57.919Z,0.00
2023-03-10T00:24:57.852Z,0.00
2023-03-10T00:25:57.794Z,0.00
2023-03-10T00:26:57.707Z,0.00
2023-03-10T00:27:57.643Z,0.00
2023-03-10T00:29:18.576Z,0.00
2023-03-10T00:29:57.504Z,0.00
2023-03-10T00:30:57.464Z,0.00
2023-03-10T00:31:57.357Z,0.00
2023-03-10T00:32:57.304Z,0.00
2023-03-10T00:33:57.223Z,0.00
2023-03-10T00:35:18.149Z,0.00
2023-03-10T00:35:57.094Z,0.00
2023-03-10T00:36:57.023Z,0.00
2023-03-10T00:37:56.932Z,0.00
2023-03-10T00:38:56.872Z,0.00
2023-03-10T00:39:56.814Z,0.00
2023-03-10T00:41:17.707Z,0.00
2023-03-10T00:41:56.652Z,0.00
2023-03-10T00:42:56.583Z,0.00
2023-03-10T00:43:56.510Z,0.00
2023-03-10T00:44:56.438Z,0.00
2023-03-10T00:45:56.365Z,0.00
2023-03-10T00:47:17.287Z,0.00
2023-03-10T00:47:56.224Z,0.00
2023-03-10T00:48:56.158Z,0.00
2023-03-10T00:49:56.096Z,0.00
2023-03-10T00:50:56.016Z,0.00
2023-03-10T00:51:55.941Z,0.00
2023-03-10T00:53:16.859Z,0.00
2023-03-10T00:53:55.805Z,0.00
2023-03-10T00:54:55.741Z,0.00
2023-03-10T00:55:55.655Z,0.00
2023-03-10T00:56:55.620Z,0.00
2023-03-10T00:57:55.514Z,0.00
2023-03-10T00:59:16.431Z,0.00
2023-03-10T00:59:55.390Z,0.00
2023-03-10T01:00:55.303Z,0.00
2023-03-10T01:01:55.319Z,0.00
2023-03-10T01:02:55.173Z,0.00
2023-03-10T01:03:55.124Z,0.00
2023-03-10T01:05:16.021Z,0.00
2023-03-10T01:05:54.952Z,0.00
2023-03-10T01:06:54.889Z,0.00
2023-03-10T01:07:54.805Z,0.00
2023-03-10T01:08:54.740Z,0.00
2023-03-10T01:09:54.678Z,0.00
2023-03-10T01:11:15.576Z,0.00
2023-03-10T01:11:54.522Z,0.00
2023-03-10T01:12:54.463Z,0.00
2023-03-10T01:13:54.404Z,0.00
2023-03-10T01:14:54.318Z,0.00
2023-03-10T01:15:54.282Z,0.00
2023-03-10T01:17:15.152Z,0.00
2023-03-10T01:17:54.108Z,0.00
2023-03-10T01:18:54.035Z,0.00
2023-03-10T01:19:54.002Z,0.00
2023-03-10T01:20:53.890Z,0.00
2023-03-10T01:21:53.819Z,0.00
2023-03-10T01:23:14.742Z,0.00
2023-03-10T01:23:53.676Z,0.00
2023-03-10T01:24:53.603Z,0.00
2023-03-10T01:25:53.532Z,0.00
2023-03-10T01:26:53.464Z,0.00
2023-03-10T01:27:53.388Z,0.00
2023-03-10T01:29:14.304Z,0.00
2023-03-10T01:29:53.242Z,0.00
2023-03-10T01:30:53.324Z,0.00
2023-03-10T01:31:53.105Z,0.00
2023-03-10T01:32:53.112Z,0.00
2023-03-10T01:33:52.965Z,0.00
2023-03-10T01:35:13.884Z,0.00
2023-03-10T01:35:52.839Z,0.00
2023-03-10T01:36:52.753Z,0.00
2023-03-10T01:37:52.676Z,0.00
2023-03-10T01:38:52.610Z,0.00
2023-03-10T01:39:52.543Z,0.00
2023-03-10T01:41:13.460Z,0.00
2023-03-10T01:41:52.410Z,0.00
2023-03-10T01:42:52.338Z,0.00
2023-03-10T01:43:52.349Z,0.00
2023-03-10T01:44:52.185Z,0.00
2023-03-10T01:45:52.104Z,0.00
2023-03-10T01:47:13.024Z,0.00
2023-03-10T01:47:51.971Z,0.00
2023-03-10T01:48:51.909Z,0.00
2023-03-10T01:49:51.832Z,0.00
2023-03-10T01:50:51.760Z,0.00
2023-03-10T01:51:51.689Z,0.00
2023-03-10T01:53:12.591Z,0.00
2023-03-10T01:53:51.538Z,0.00
2023-03-10T01:54:51.468Z,0.00
2023-03-10T01:55:51.395Z,0.00
2023-03-10T01:56:51.325Z,0.00
2023-03-10T01:57:51.252Z,0.00
2023-03-10T01:59:12.218Z,0.00
2023-03-10T01:59:51.114Z,0.00
2023-03-10T02:00:51.094Z,0.00
2023-03-10T02:01:51.058Z,0.00
2023-03-10T02:02:50.910Z,0.00
2023-03-10T02:03:50.821Z,0.00
2023-03-10T02:05:11.757Z,0.00
2023-03-10T02:05:50.691Z,0.00
2023-03-10T02:06:50.613Z,0.00
2023-03-10T02:07:50.542Z,0.00
2023-03-10T02:08:50.476Z,0.00
2023-03-10T02:09:50.392Z,0.00
2023-03-10T02:11:11.334Z,0.00
2023-03-10T02:11:50.257Z,0.00
2023-03-10T02:12:50.195Z,0.00
2023-03-10T02:13:50.111Z,0.00
2023-03-10T02:14:50.046Z,0.00
2023-03-10T02:15:49.975Z,0.00
2023-03-10T02:17:10.886Z,0.00
2023-03-10T02:17:49.992Z,0.00
2023-03-10T02:18:49.783Z,0.00
2023-03-10T02:19:49.692Z,0.00
2023-03-10T02:20:49.616Z,0.00
2023-03-10T02:21:49.542Z,0.00
2023-03-10T02:23:10.463Z,0.00
2023-03-10T02:24:00.214Z,0.00
2023-03-10T02:24:49.336Z,0.00
2023-03-10T02:25:49.271Z,0.00
2023-03-10T02:26:49.243Z,0.00
2023-03-10T02:27:49.116Z,0.00
2023-03-10T02:29:10.036Z,0.00
2023-03-10T02:29:58.951Z,0.00
2023-03-10T02:30:48.911Z,0.00
2023-03-10T02:31:48.856Z,0.00
2023-03-10T02:32:48.877Z,0.00
2023-03-10T02:33:48.694Z,0.00
2023-03-10T02:35:09.614Z,0.00
2023-03-10T02:35:48.593Z,0.00
2023-03-10T02:36:48.481Z,0.00
2023-03-10T02:37:48.415Z,0.00
2023-03-10T02:38:48.360Z,0.00
2023-03-10T02:39:48.268Z,0.00
2023-03-10T02:41:09.181Z,0.00
2023-03-10T02:41:48.134Z,0.00
2023-03-10T02:42:48.066Z,0.00
2023-03-10T02:43:47.997Z,0.00
2023-03-10T02:44:47.909Z,0.00
2023-03-10T02:45:47.869Z,0.00
2023-03-10T02:47:08.761Z,0.00
2023-03-10T02:47:47.700Z,0.00
2023-03-10T02:48:47.623Z,0.00
2023-03-10T02:49:47.548Z,0.00
2023-03-10T02:50:47.495Z,0.00
2023-03-10T02:51:47.423Z,0.00
2023-03-10T02:53:08.339Z,0.00
2023-03-10T02:53:47.265Z,0.00
2023-03-10T02:54:47.202Z,0.00
2023-03-10T02:55:47.124Z,0.00
2023-03-10T02:56:47.072Z,0.00
2023-03-10T02:57:46.981Z,0.00
2023-03-10T02:59:07.927Z,0.00
2023-03-10T02:59:46.841Z,0.00
2023-03-10T03:00:46.796Z,0.00
2023-03-10T03:01:46.697Z,0.00
2023-03-10T03:02:46.633Z,0.00
2023-03-10T03:03:46.644Z,0.00
2023-03-10T03:05:07.468Z,0.00
2023-03-10T03:05:46.410Z,0.00
2023-03-10T03:06:46.340Z,0.00
2023-03-10T03:07:46.271Z,0.00
2023-03-10T03:08:46.196Z,0.00
2023-03-10T03:09:46.125Z,0.00
2023-03-10T03:11:07.046Z,0.00
2023-03-10T03:11:45.992Z,0.00
2023-03-10T03:12:45.914Z,0.00
2023-03-10T03:13:45.851Z,0.00
2023-03-10T03:14:45.770Z,0.00
2023-03-10T03:15:45.704Z,0.00
2023-03-10T03:17:06.693Z,0.00
2023-03-10T03:17:45.592Z,0.00
2023-03-10T03:18:45.497Z,0.00
2023-03-10T03:19:45.427Z,0.00
2023-03-10T03:20:45.351Z,0.00
2023-03-10T03:21:45.285Z,0.00
2023-03-10T03:23:06.185Z,0.00
2023-03-10T03:23:45.131Z,0.00
2023-03-10T03:24:45.074Z,0.00
2023-03-10T03:25:44.980Z,0.00
2023-03-10T03:26:44.914Z,0.00
2023-03-10T03:27:44.847Z,0.00
2023-03-10T03:29:05.762Z,0.00
2023-03-10T03:29:44.706Z,0.00
2023-03-10T03:30:44.630Z,0.00
2023-03-10T03:31:44.581Z,0.00
2023-03-10T03:32:44.522Z,0.00
2023-03-10T03:33:44.416Z,0.00
2023-03-10T03:35:05.322Z,0.00
2023-03-10T03:35:44.305Z,0.00
2023-03-10T03:36:44.199Z,0.00
2023-03-10T03:37:44.134Z,0.00
2023-03-10T03:38:44.074Z,0.00
2023-03-10T03:39:44.052Z,0.00
2023-03-10T03:41:04.903Z,0.00
2023-03-10T03:41:43.859Z,0.00
2023-03-10T03:42:43.773Z,0.00
2023-03-10T03:43:43.709Z,0.00
2023-03-10T03:44:43.630Z,0.00
2023-03-10T03:45:43.662Z,0.00
2023-03-10T03:47:04.470Z,0.00
2023-03-10T03:47:43.427Z,0.00
2023-03-10T03:48:43.361Z,0.00
2023-03-10T03:49:43.285Z,0.00
2023-03-10T03:50:43.225Z,0.00
2023-03-10T03:51:43.140Z,0.00
2023-03-10T03:53:04.042Z,0.00
2023-03-10T03:53:43.004Z,0.00
2023-03-10T03:54:42.924Z,0.00
2023-03-10T03:55:42.850Z,0.00
2023-03-10T03:56:42.793Z,0.00
2023-03-10T03:57:42.749Z,0.00
2023-03-10T03:59:03.622Z,0.00
2023-03-10T03:59:42.564Z,0.00
2023-03-10T04:00:42.488Z,0.00
2023-03-10T04:01:42.420Z,0.00
2023-03-10T04:02:42.389Z,0.00
2023-03-10T04:03:42.331Z,0.00
2023-03-10T04:05:03.194Z,0.00
2023-03-10T04:05:42.155Z,0.00
2023-03-10T04:06:42.062Z,0.00
2023-03-10T04:07:41.994Z,0.00
2023-03-10T04:08:41.928Z,0.00
2023-03-10T04:09:41.850Z,0.00
2023-03-10T04:11:02.766Z,0.00
2023-03-10T04:11:41.722Z,0.00
2023-03-10T04:12:41.635Z,0.00
2023-03-10T04:13:41.564Z,0.00
2023-03-10T04:14:41.496Z,0.00
2023-03-10T04:15:41.485Z,0.00
2023-03-10T04:17:02.332Z,0.00
2023-03-10T04:17:41.287Z,0.00
2023-03-10T04:18:41.210Z,0.00
2023-03-10T04:19:41.138Z,0.00
2023-03-10T04:20:41.070Z,0.00
2023-03-10T04:21:40.997Z,0.00
2023-03-10T04:23:01.918Z,0.00
2023-03-10T04:23:40.862Z,0.00
2023-03-10T04:24:40.784Z,0.00
2023-03-10T04:25:40.718Z,0.00
2023-03-10T04:26:40.634Z,0.00
2023-03-10T04:27:40.585Z,0.00
2023-03-10T04:29:01.483Z,0.00
2023-03-10T04:29:40.433Z,0.00
2023-03-10T04:30:40.353Z,0.00
2023-03-10T04:31:40.362Z,0.00
2023-03-10T04:32:40.297Z,0.00
2023-03-10T04:33:40.142Z,0.00
2023-03-10T04:35:01.072Z,0.00
2023-03-10T04:35:40.947Z,0.00
2023-03-10T04:36:39.957Z,0.00
2023-03-10T04:37:39.979Z,0.00
2023-03-10T04:38:39.793Z,0.00
2023-03-10T04:39:39.751Z,0.00
2023-03-10T04:41:00.629Z,0.00
2023-03-10T04:41:39.574Z,0.00
2023-03-10T04:42:39.502Z,0.00
2023-03-10T04:43:41.982Z,0.00
2023-03-10T04:44:39.369Z,0.00
2023-03-10T04:45:39.291Z,0.00
2023-03-10T04:47:00.207Z,0.00
2023-03-10T04:47:39.176Z,0.00
2023-03-10T04:48:39.074Z,0.00
2023-03-10T04:49:39.025Z,0.00
2023-03-10T04:50:38.952Z,0.00
2023-03-10T04:51:38.877Z,0.00
2023-03-10T04:52:59.776Z,0.00
2023-03-10T04:53:38.742Z,0.00
2023-03-10T04:54:38.662Z,0.00
2023-03-10T04:55:38.581Z,0.00
2023-03-10T04:56:38.510Z,0.00
2023-03-10T04:57:38.437Z,0.00
2023-03-10T04:58:59.359Z,0.00
2023-03-10T04:59:38.296Z,0.00
2023-03-10T05:00:38.259Z,0.00
2023-03-10T05:01:38.194Z,0.00
2023-03-10T05:02:38.075Z,0.00
2023-03-10T05:03:38.011Z,0.00
2023-03-10T05:04:58.944Z,0.00
2023-03-10T05:05:37.879Z,0.00
2023-03-10T05:06:37.809Z,0.00
2023-03-10T05:07:37.728Z,0.00
2023-03-10T05:08:37.651Z,0.00
2023-03-10T05:09:37.596Z,0.00
2023-03-10T05:10:58.495Z,0.00
2023-03-10T05:11:37.435Z,0.00
2023-03-10T05:12:37.380Z,0.00
2023-03-10T05:13:37.296Z,0.00
2023-03-10T05:14:37.223Z,0.00
2023-03-10T05:15:37.157Z,0.00
2023-03-10T05:16:58.098Z,0.00
2023-03-10T05:17:37.016Z,4.00
2023-03-10T05:18:36.938Z,4.00
2023-03-10T05:19:36.875Z,4.00
2023-03-10T05:20:36.794Z,4.00
2023-03-10T05:21:36.726Z,4.00
2023-03-10T05:22:57.638Z,4.00
2023-03-10T05:23:36.578Z,4.00
2023-03-10T05:24:36.511Z,4.00
2023-03-10T05:25:36.457Z,4.00
2023-03-10T05:26:36.363Z,4.00
2023-03-10T05:27:36.297Z,4.00
2023-03-10T05:28:57.213Z,8.00
2023-03-10T05:29:36.168Z,8.00
2023-03-10T05:30:36.078Z,8.00
2023-03-10T05:31:36.073Z,16.00
2023-03-10T05:32:36.026Z,12.00
2023-03-10T05:33:35.866Z,12.00
2023-03-10T05:34:56.780Z,12.00
2023-03-10T05:35:35.756Z,12.00
2023-03-10T05:36:35.659Z,12.00
2023-03-10T05:37:35.588Z,12.00
2023-03-10T05:38:35.513Z,12.00
2023-03-10T05:39:35.469Z,8.00
2023-03-10T05:40:56.358Z,8.00
2023-03-10T05:41:35.305Z,12.00
2023-03-10T05:42:35.339Z,12.00
2023-03-10T05:43:35.170Z,16.00
2023-03-10T05:44:35.087Z,20.00
2023-03-10T05:45:35.028Z,24.00
2023-03-10T05:46:56.013Z,24.00
2023-03-10T05:47:34.883Z,28.00
2023-03-10T05:48:34.812Z,32.00
2023-03-10T05:49:37.327Z,32.00
2023-03-10T05:50:34.664Z,36.00
2023-03-10T05:51:34.598Z,36.00
2023-03-10T05:52:55.508Z,36.00
2023-03-10T05:53:34.446Z,40.00
2023-03-10T05:54:34.378Z,48.00
2023-03-10T05:55:34.316Z,48.00
2023-03-10T05:56:34.236Z,60.00
2023-03-10T05:57:34.163Z,76.00
2023-03-10T05:58:55.118Z,80.00
2023-03-10T05:59:34.050Z,84.00
2023-03-10T06:00:34.001Z,84.00
2023-03-10T06:01:33.912Z,72.00
2023-03-10T06:02:33.826Z,64.00
2023-03-10T06:03:33.843Z,64.00
2023-03-10T06:04:54.659Z,64.00
2023-03-10T06:05:33.600Z,72.00
2023-03-10T06:06:33.523Z,80.00
2023-03-10T06:07:33.470Z,84.00
2023-03-10T06:08:33.392Z,88.00
2023-03-10T06:09:33.321Z,92.00
2023-03-10T06:10:54.219Z,96.00
2023-03-10T06:11:33.172Z,96.00
2023-03-10T06:12:33.104Z,100.00
2023-03-10T06:13:33.033Z,96.00
2023-03-10T06:14:32.954Z,92.00
2023-03-10T06:15:32.905Z,96.00
2023-03-10T06:16:53.930Z,92.00
2023-03-10T06:17:32.766Z,92.00
2023-03-10T06:18:32.681Z,100.00
2023-03-10T06:19:32.609Z,112.00
2023-03-10T06:20:32.532Z,132.00
2023-03-10T06:21:32.462Z,144.00
2023-03-10T06:22:53.393Z,148.00
2023-03-10T06:23:32.329Z,164.00
2023-03-10T06:24:32.256Z,168.00
2023-03-10T06:25:32.185Z,160.00
2023-03-10T06:26:32.112Z,160.00
2023-03-10T06:27:32.036Z,172.00
2023-03-10T06:28:52.957Z,172.00
2023-03-10T06:29:31.901Z,164.00
2023-03-10T06:30:31.830Z,172.00
2023-03-10T06:31:31.785Z,188.00
2023-03-10T06:32:31.773Z,220.00
2023-03-10T06:33:31.622Z,232.00
2023-03-10T06:34:52.533Z,232.00
2023-03-10T06:35:31.477Z,244.00
2023-03-10T06:36:31.427Z,272.00
2023-03-10T06:37:31.362Z,312.00
2023-03-10T06:38:31.264Z,328.00
2023-03-10T06:39:31.228Z,340.00
2023-03-10T06:40:52.100Z,360.00
2023-03-10T06:41:31.046Z,348.00
2023-03-10T06:42:30.976Z,332.00
2023-03-10T06:43:30.910Z,296.00
2023-03-10T06:44:30.852Z,284.00
2023-03-10T06:45:30.786Z,276.00
2023-03-10T06:46:51.689Z,268.00
2023-03-10T06:47:30.630Z,304.00
2023-03-10T06:48:30.557Z,328.00
2023-03-10T06:49:30.484Z,336.00
2023-03-10T06:50:31.638Z,348.00
2023-03-10T06:51:30.362Z,368.00
2023-03-10T06:52:51.258Z,392.00
2023-03-10T06:53:30.199Z,404.00
2023-03-10T06:54:30.143Z,340.00
2023-03-10T06:55:30.071Z,288.00
2023-03-10T06:56:29.990Z,268.00
2023-03-10T06:57:29.924Z,252.00
2023-03-10T06:58:50.829Z,272.00
2023-03-10T06:59:29.777Z,288.00
2023-03-10T07:00:29.718Z,316.00
2023-03-10T07:01:29.739Z,356.00
2023-03-10T07:02:29.693Z,412.00
2023-03-10T07:03:29.501Z,396.00
2023-03-10T07:04:50.543Z,372.00
2023-03-10T07:05:29.382Z,340.00
2023-03-10T07:06:29.280Z,328.00
2023-03-10T07:07:29.207Z,312.00
2023-03-10T07:08:29.143Z,292.00
2023-03-10T07:09:29.092Z,272.00
2023-03-10T07:10:51.687Z,268.00
2023-03-10T07:11:28.932Z,252.00
2023-03-10T07:12:28.864Z,248.00
2023-03-10T07:13:28.783Z,268.00
2023-03-10T07:14:28.722Z,276.00
2023-03-10T07:15:28.637Z,268.00
2023-03-10T07:16:49.555Z,264.00
2023-03-10T07:17:28.491Z,304.00
2023-03-10T07:18:28.421Z,312.00
2023-03-10T07:19:28.371Z,316.00
2023-03-10T07:20:28.294Z,360.00
2023-03-10T07:21:28.215Z,420.00
2023-03-10T07:22:49.121Z,384.00
2023-03-10T07:23:28.071Z,404.00
2023-03-10T07:24:27.997Z,468.00
2023-03-10T07:25:27.925Z,508.00
2023-03-10T07:26:27.855Z,512.00
2023-03-10T07:27:27.787Z,528.00
2023-03-10T07:28:48.704Z,564.00
2023-03-10T07:29:27.653Z,560.00
2023-03-10T07:30:27.603Z,544.00
2023-03-10T07:31:27.593Z,520.00
2023-03-10T07:32:27.472Z,480.00
2023-03-10T07:33:27.361Z,464.00
2023-03-10T07:34:48.289Z,492.00
2023-03-10T07:35:27.221Z,584.00
2023-03-10T07:36:27.160Z,668.00
2023-03-10T07:37:27.086Z,684.00
2023-03-10T07:38:27.011Z,716.00
2023-03-10T07:39:26.987Z,832.00
2023-03-10T07:40:47.862Z,900.00
2023-03-10T07:41:26.802Z,960.00
2023-03-10T07:42:26.726Z,868.00
2023-03-10T07:43:26.655Z,692.00
2023-03-10T07:44:26.592Z,560.00
2023-03-10T07:45:26.540Z,500.00
2023-03-10T07:46:47.437Z,428.00
2023-03-10T07:47:26.377Z,444.00
2023-03-10T07:48:26.332Z,476.00
2023-03-10T07:49:26.238Z,516.00
2023-03-10T07:50:26.170Z,472.00
2023-03-10T07:51:26.099Z,460.00
2023-03-10T07:52:47.015Z,452.00
2023-03-10T07:53:25.950Z,400.00
2023-03-10T07:54:25.879Z,376.00
2023-03-10T07:55:25.836Z,424.00
2023-03-10T07:56:25.747Z,428.00
2023-03-10T07:57:25.678Z,444.00
2023-03-10T07:58:46.584Z,488.00
2023-03-10T07:59:25.525Z,524.00
2023-03-10T08:00:25.464Z,588.00
2023-03-10T08:01:25.406Z,572.00
2023-03-10T08:02:25.335Z,580.00
2023-03-10T08:03:25.283Z,624.00
2023-03-10T08:04:46.356Z,684.00
2023-03-10T08:05:25.122Z,732.00
2023-03-10T08:06:25.051Z,776.00
2023-03-10T08:07:24.971Z,832.00
2023-03-10T08:08:24.905Z,876.00
2023-03-10T08:09:24.826Z,904.00
2023-03-10T08:10:45.741Z,908.00
2023-03-10T08:11:24.700Z,1100.00
2023-03-10T08:12:24.617Z,1024.00
2023-03-10T08:13:24.549Z,796.00
2023-03-10T08:14:24.474Z,748.00
2023-03-10T08:15:24.408Z,776.00
2023-03-10T08:16:45.323Z,800.00
2023-03-10T08:17:24.262Z,916.00
2023-03-10T08:18:24.195Z,1164.00
2023-03-10T08:19:24.123Z,1236.00
2023-03-10T08:20:24.070Z,1172.00
2023-03-10T08:21:23.983Z,1012.00
2023-03-10T08:22:44.929Z,1072.00
2023-03-10T08:23:23.845Z,1084.00
2023-03-10T08:24:23.775Z,996.00
2023-03-10T08:25:23.702Z,996.00
2023-03-10T08:26:23.633Z,932.00
2023-03-10T08:27:23.574Z,996.00
2023-03-10T08:28:44.483Z,1188.00
2023-03-10T08:29:23.424Z,1344.00
2023-03-10T08:30:23.350Z,1280.00
2023-03-10T08:31:23.311Z,1244.00
2023-03-10T08:32:23.282Z,1248.00
2023-03-10T08:33:23.173Z,1256.00
2023-03-10T08:34:44.082Z,1104.00
2023-03-10T08:35:22.999Z,1012.00
2023-03-10T08:36:22.985Z,904.00
2023-03-10T08:37:22.894Z,892.00
2023-03-10T08:38:22.790Z,840.00
2023-03-10T08:39:22.737Z,764.00
2023-03-10T08:40:43.659Z,708.00
2023-03-10T08:41:22.593Z,700.00
2023-03-10T08:42:22.514Z,652.00
2023-03-10T08:43:22.444Z,608.00
2023-03-10T08:44:22.372Z,632.00
2023-03-10T08:45:22.315Z,608.00
2023-03-10T08:46:46.330Z,556.00
2023-03-10T08:47:22.160Z,516.00
2023-03-10T08:48:22.099Z,500.00
2023-03-10T08:49:22.026Z,484.00
2023-03-10T08:50:21.959Z,500.00
2023-03-10T08:51:21.892Z,616.00
2023-03-10T08:52:42.806Z,748.00
2023-03-10T08:53:21.748Z,720.00
2023-03-10T08:54:21.735Z,568.00
2023-03-10T08:55:21.610Z,580.00
2023-03-10T08:56:21.554Z,620.00
2023-03-10T08:57:21.471Z,628.00
2023-03-10T08:58:42.389Z,648.00
2023-03-10T08:59:21.330Z,696.00
2023-03-10T09:00:21.268Z,600.00
2023-03-10T09:01:21.193Z,652.00
2023-03-10T09:02:21.228Z,808.00
2023-03-10T09:03:21.123Z,760.00
2023-03-10T09:04:41.972Z,840.00
2023-03-10T09:05:21.874Z,928.00
2023-03-10T09:06:20.847Z,984.00
2023-03-10T09:07:20.775Z,1180.00
2023-03-10T09:08:20.710Z,1400.00
2023-03-10T09:09:20.647Z,1588.00
2023-03-10T09:10:41.557Z,1772.00
2023-03-10T09:11:20.498Z,1736.00
2023-03-10T09:12:20.431Z,1884.00
2023-03-10T09:13:20.355Z,1900.00
2023-03-10T09:14:20.287Z,2352.00
2023-03-10T09:15:20.221Z,3296.00
2023-03-10T09:16:41.281Z,3224.00
2023-03-10T09:17:20.077Z,3152.00
2023-03-10T09:18:20.018Z,2696.00
2023-03-10T09:19:19.935Z,3156.00
2023-03-10T09:20:19.880Z,2808.00
2023-03-10T09:21:19.805Z,1856.00
2023-03-10T09:22:40.716Z,1580.00
2023-03-10T09:23:19.663Z,1608.00
2023-03-10T09:24:19.601Z,1336.00
2023-03-10T09:25:19.534Z,1048.00
2023-03-10T09:26:19.573Z,1280.00
2023-03-10T09:27:19.385Z,1324.00
2023-03-10T09:28:40.312Z,1468.00
2023-03-10T09:29:20.344Z,1504.00
2023-03-10T09:30:19.178Z,1756.00
2023-03-10T09:31:19.121Z,2936.00
2023-03-10T09:32:19.235Z,2764.00
2023-03-10T09:33:18.987Z,3852.00
2023-03-10T09:34:39.895Z,3020.00
2023-03-10T09:35:18.927Z,2332.00
2023-03-10T09:36:18.834Z,1708.00
2023-03-10T09:37:18.713Z,1728.00
2023-03-10T09:38:18.752Z,2416.00
2023-03-10T09:39:18.564Z,2828.00
2023-03-10T09:40:39.541Z,2420.00
2023-03-10T09:41:18.426Z,2856.00
2023-03-10T09:42:25.523Z,3360.00
2023-03-10T09:43:18.302Z,2304.00
2023-03-10T09:44:18.233Z,1548.00
2023-03-10T09:45:18.166Z,1244.00
2023-03-10T09:46:39.078Z,1172.00
2023-03-10T09:47:20.032Z,1208.00
2023-03-10T09:48:17.955Z,1356.00
2023-03-10T09:49:17.882Z,1516.00
2023-03-10T09:50:17.819Z,1312.00
2023-03-10T09:51:17.744Z,1804.00
2023-03-10T09:52:38.675Z,2012.00
2023-03-10T09:53:17.605Z,1856.00
2023-03-10T09:54:17.553Z,2192.00
2023-03-10T09:55:17.487Z,2476.00
2023-03-10T09:56:17.406Z,2712.00
2023-03-10T09:57:17.362Z,2832.00
2023-03-10T09:58:38.257Z,2388.00
2023-03-10T09:59:17.199Z,2116.00
2023-03-10T10:00:17.146Z,2272.00
2023-03-10T10:01:17.071Z,2096.00
2023-03-10T10:02:17.009Z,1716.00
2023-03-10T10:03:17.080Z,1556.00
2023-03-10T10:04:38.023Z,1468.00
2023-03-10T10:05:17.326Z,1436.00
2023-03-10T10:06:16.744Z,1564.00
2023-03-10T10:07:16.659Z,1608.00
2023-03-10T10:08:16.590Z,1536.00
2023-03-10T10:09:16.568Z,1504.00
2023-03-10T10:10:37.450Z,1420.00
2023-03-10T10:11:16.471Z,1352.00
2023-03-10T10:12:16.332Z,1144.00
2023-03-10T10:13:16.282Z,996.00
2023-03-10T10:14:27.695Z,1080.00
2023-03-10T10:15:16.114Z,1196.00
2023-03-10T10:16:37.065Z,1020.00
2023-03-10T10:17:16.027Z,1020.00
2023-03-10T10:18:21.920Z,1128.00
2023-03-10T10:19:15.843Z,1440.00
2023-03-10T10:20:15.781Z,1500.00
2023-03-10T10:21:15.709Z,1440.00
2023-03-10T10:22:36.625Z,1612.00
2023-03-10T10:23:15.568Z,1408.00
2023-03-10T10:24:15.508Z,1432.00
2023-03-10T10:25:15.457Z,1668.00
2023-03-10T10:26:15.374Z,1488.00
2023-03-10T10:27:15.301Z,1380.00
2023-03-10T10:28:36.216Z,1176.00
2023-03-10T10:29:15.186Z,1272.00
2023-03-10T10:30:15.115Z,1728.00
2023-03-10T10:31:15.093Z,1936.00
2023-03-10T10:32:15.004Z,1776.00
2023-03-10T10:33:14.899Z,1744.00
2023-03-10T10:34:35.827Z,1692.00
2023-03-10T10:35:14.782Z,1668.00
2023-03-10T10:36:14.734Z,1656.00
2023-03-10T10:37:16.035Z,1764.00
2023-03-10T10:38:14.557Z,1876.00
2023-03-10T10:39:14.529Z,1892.00
2023-03-10T10:40:35.410Z,2112.00
2023-03-10T10:41:14.351Z,2208.00
2023-03-10T10:42:14.284Z,2236.00
2023-03-10T10:43:14.214Z,2296.00
2023-03-10T10:44:14.150Z,2168.00
2023-03-10T10:45:14.082Z,2192.00
2023-03-10T10:46:35.184Z,2280.00
2023-03-10T10:47:13.951Z,2376.00
2023-03-10T10:48:13.884Z,2484.00
2023-03-10T10:49:13.811Z,2984.00
2023-03-10T10:50:14.110Z,3256.00
2023-03-10T10:51:13.723Z,3408.00
2023-03-10T10:52:34.601Z,2980.00
2023-03-10T10:53:13.569Z,2388.00
2023-03-10T10:54:13.497Z,2692.00
2023-03-10T10:55:13.427Z,3084.00
2023-03-10T10:56:13.352Z,3572.00
2023-03-10T10:57:13.274Z,3420.00
2023-03-10T10:58:34.207Z,3088.00
2023-03-10T10:59:13.152Z,3224.00
2023-03-10T11:00:13.078Z,3684.00
2023-03-10T11:01:13.043Z,4496.00
2023-03-10T11:02:12.970Z,5244.00
2023-03-10T11:03:12.881Z,5336.00
2023-03-10T11:04:33.802Z,4104.00
2023-03-10T11:05:12.751Z,4016.00
2023-03-10T11:06:12.674Z,4500.00
2023-03-10T11:07:12.605Z,4624.00
2023-03-10T11:08:12.549Z,4224.00
2023-03-10T11:09:12.617Z,3840.00
2023-03-10T11:10:33.402Z,3512.00
2023-03-10T11:11:12.344Z,3640.00
2023-03-10T11:12:12.293Z,3488.00
2023-03-10T11:13:12.210Z,3456.00
2023-03-10T11:14:12.151Z,3348.00
2023-03-10T11:15:12.078Z,2988.00
2023-03-10T11:16:33.016Z,2764.00
2023-03-10T11:17:11.953Z,2408.00
2023-03-10T11:18:11.886Z,2240.00
2023-03-10T11:19:11.821Z,2336.00
2023-03-10T11:20:11.760Z,2512.00
2023-03-10T11:21:11.696Z,2856.00
2023-03-10T11:22:32.612Z,2844.00
2023-03-10T11:23:11.570Z,3268.00
2023-03-10T11:24:11.519Z,3536.00
2023-03-10T11:25:11.427Z,3732.00
2023-03-10T11:26:11.365Z,3508.00
2023-03-10T11:27:11.296Z,3372.00
2023-03-10T11:28:32.218Z,3656.00
2023-03-10T11:29:11.226Z,3544.00
2023-03-10T11:30:11.103Z,3436.00
2023-03-10T11:31:11.066Z,3300.00
2023-03-10T11:32:10.995Z,3096.00
2023-03-10T11:33:10.898Z,3396.00
2023-03-10T11:34:31.844Z,3132.00
2023-03-10T11:35:10.768Z,2916.00
2023-03-10T11:36:10.816Z,2688.00
2023-03-10T11:37:10.635Z,2628.00
2023-03-10T11:38:10.594Z,2204.00
2023-03-10T11:39:10.531Z,1948.00
2023-03-10T11:40:31.435Z,1964.00
2023-03-10T11:41:10.477Z,2396.00
2023-03-10T11:42:10.308Z,2800.00
2023-03-10T11:43:10.244Z,2896.00
2023-03-10T11:44:10.188Z,2824.00
2023-03-10T11:45:10.120Z,2900.00
2023-03-10T11:46:31.093Z,2888.00
2023-03-10T11:47:10.008Z,2844.00
2023-03-10T11:48:09.915Z,2904.00
2023-03-10T11:49:09.853Z,3212.00
2023-03-10T11:50:09.800Z,3312.00
2023-03-10T11:51:09.732Z,3604.00
2023-03-10T11:52:30.634Z,4052.00
2023-03-10T11:53:09.599Z,4016.00
2023-03-10T11:54:09.534Z,3792.00
2023-03-10T11:55:09.459Z,3636.00
2023-03-10T11:56:09.393Z,3632.00
2023-03-10T11:57:09.334Z,3732.00
2023-03-10T11:58:30.276Z,3592.00
2023-03-10T11:59:09.201Z,3392.00
2023-03-10T12:00:09.135Z,3044.00
2023-03-10T12:01:09.069Z,3008.00
2023-03-10T12:02:08.998Z,2832.00
2023-03-10T12:03:08.970Z,2940.00
2023-03-10T12:04:29.857Z,3160.00
2023-03-10T12:05:08.889Z,2796.00
2023-03-10T12:06:08.740Z,2372.00
2023-03-10T12:07:08.694Z,2284.00
2023-03-10T12:08:08.612Z,2232.00
2023-03-10T12:09:08.541Z,2272.00
2023-03-10T12:10:29.491Z,2152.00
2023-03-10T12:11:08.458Z,2000.00
2023-03-10T12:12:08.341Z,2240.00
2023-03-10T12:13:08.282Z,2396.00
2023-03-10T12:14:08.228Z,2236.00
2023-03-10T12:15:08.167Z,2268.00
2023-03-10T12:16:29.123Z,1964.00
2023-03-10T12:17:08.014Z,1760.00
2023-03-10T12:18:07.961Z,1864.00
2023-03-10T12:19:07.892Z,1900.00
2023-03-10T12:20:07.816Z,1836.00
2023-03-10T12:21:07.760Z,1900.00
2023-03-10T12:22:28.693Z,2024.00
2023-03-10T12:23:07.628Z,2124.00
2023-03-10T12:24:07.548Z,1924.00
2023-03-10T12:25:07.486Z,1380.00
2023-03-10T12:26:07.417Z,1128.00
2023-03-10T12:27:07.353Z,1032.00
2023-03-10T12:28:28.288Z,1072.00
2023-03-10T12:29:07.222Z,1284.00
2023-03-10T12:30:07.149Z,1232.00
2023-03-10T12:31:07.146Z,1224.00
2023-03-10T12:32:07.021Z,952.00
2023-03-10T12:33:06.953Z,916.00
2023-03-10T12:34:27.891Z,1136.00
2023-03-10T12:35:06.823Z,1020.00
2023-03-10T12:36:06.802Z,992.00
2023-03-10T12:37:06.698Z,976.00
2023-03-10T12:38:06.662Z,1092.00
2023-03-10T12:39:06.552Z,1196.00
2023-03-10T12:40:27.509Z,1104.00
2023-03-10T12:41:06.439Z,1272.00
2023-03-10T12:42:06.358Z,2000.00
2023-03-10T12:43:06.286Z,2700.00